Time;durP1;ratioP1;P1;durP2;ratioP2;P2;SDS_P1;SDS_P2;PMS_P1;PMS_P2;Temp;Humidity;BMP_temperature;BMP_pressure;BME280_temperature;BME280_humidity;BME280_pressure;Samples;Min_cycle;Max_cycle;Signal;HPM_P1;HPM_P2
2024/02/10 00:00:32;;;;;;;20.10;13.40;;;10.20;99.90;;;;;;5129748;27;20210;-70
2024/02/10 00:02:58;;;;;;;18.87;12.73;;;10.20;99.90;;;;;;5108293;27;20922;-71
2024/02/10 00:05:25;;;;;;;20.80;12.77;;;10.20;99.90;;;;;;5139771;27;20387;-69
2024/02/10 00:07:55;;;;;;;19.70;13.90;;;10.20;99.90;;;;;;5136579;27;20403;-73
2024/02/10 00:10:30;;;;;;;31.70;15.20;;;10.20;99.90;;;;;;5130525;27;20414;-71
2024/02/10 00:12:59;;;;;;;19.90;13.10;;;10.10;99.90;;;;;;5125207;28;20425;-73
2024/02/10 00:15:26;;;;;;;20.00;12.70;;;10.10;99.90;;;;;;5130778;27;20454;-70
2024/02/10 00:17:52;;;;;;;18.80;12.00;;;10.10;99.90;;;;;;5114553;28;20828;-70
2024/02/10 00:20:20;;;;;;;19.20;12.37;;;10.10;99.90;;;;;;5134835;27;20500;-72
2024/02/10 00:22:47;;;;;;;24.23;13.33;;;10.10;99.90;;;;;;5124442;27;20207;-70
2024/02/10 00:25:15;;;;;;;26.70;13.70;;;10.10;99.90;;;;;;5121965;27;20410;-71
2024/02/10 00:27:46;;;;;;;24.67;13.30;;;10.10;99.90;;;;;;5124129;27;20475;-70
2024/02/10 00:30:16;;;;;;;30.93;14.40;;;10.10;99.90;;;;;;5134104;27;20499;-72
2024/02/10 00:32:43;;;;;;;18.30;12.23;;;10.10;99.90;;;;;;5117173;28;20475;-72
2024/02/10 00:35:08;;;;;;;27.57;14.23;;;10.10;99.90;;;;;;5130523;27;20444;-70
2024/02/10 00:37:34;;;;;;;19.00;12.93;;;10.10;99.90;;;;;;5131228;27;20416;-71
2024/02/10 00:40:04;;;;;;;16.70;11.07;;;10.00;99.90;;;;;;5130319;27;20192;-71
2024/02/10 00:42:31;;;;;;;18.10;11.10;;;10.00;99.90;;;;;;5113776;27;20252;-70
2024/02/10 00:45:03;;;;;;;13.97;10.30;;;10.00;99.90;;;;;;5127324;27;20421;-71
2024/02/10 00:47:28;;;;;;;16.90;10.93;;;10.00;99.90;;;;;;5146860;27;20445;-71
2024/02/10 00:49:57;;;;;;;16.57;11.37;;;10.00;99.90;;;;;;5139197;27;20406;-70
2024/02/10 00:52:23;;;;;;;16.63;10.70;;;10.00;99.90;;;;;;5160846;27;20267;-72
2024/02/10 00:54:49;;;;;;;15.57;10.53;;;10.00;99.90;;;;;;5144053;27;20836;-73
2024/02/10 00:57:14;;;;;;;18.23;10.67;;;10.00;99.90;;;;;;5130442;27;20271;-73
2024/02/10 00:59:44;;;;;;;14.30;10.20;;;10.00;99.90;;;;;;5127604;27;20254;-73
2024/02/10 01:02:17;;;;;;;24.20;10.93;;;10.00;99.90;;;;;;5144741;27;20178;-70
2024/02/10 01:04:50;;;;;;;16.97;10.00;;;10.00;99.90;;;;;;5141594;27;20425;-68
2024/02/10 01:07:16;;;;;;;15.27;9.20;;;10.00;99.90;;;;;;5155549;27;20540;-68
2024/02/10 01:09:49;;;;;;;17.33;9.87;;;10.00;99.90;;;;;;5149956;27;20669;-70
2024/02/10 01:12:16;;;;;;;17.17;9.70;;;10.00;99.90;;;;;;5145539;27;20433;-71
2024/02/10 01:14:41;;;;;;;16.23;8.60;;;10.00;99.90;;;;;;5146033;27;20416;-69
2024/02/10 01:17:11;;;;;;;14.13;8.57;;;9.90;99.90;;;;;;5131805;27;20425;-70
2024/02/10 01:19:46;;;;;;;15.90;9.23;;;9.90;99.90;;;;;;5132058;27;20317;-70
2024/02/10 01:22:15;;;;;;;9.73;7.70;;;10.00;99.90;;;;;;5143450;27;20428;-70
2024/02/10 01:24:42;;;;;;;14.30;8.23;;;9.90;99.90;;;;;;5143363;27;20720;-70
2024/02/10 01:27:10;;;;;;;25.50;11.60;;;10.00;99.90;;;;;;5136573;27;20444;-70
2024/02/10 01:29:38;;;;;;;16.27;9.17;;;10.00;99.90;;;;;;5143041;27;20432;-70
2024/02/10 01:32:05;;;;;;;13.93;8.30;;;9.90;99.90;;;;;;5155861;27;20411;-70
2024/02/10 01:34:32;;;;;;;10.10;7.60;;;9.90;99.90;;;;;;5129318;27;20441;-71
2024/02/10 01:36:58;;;;;;;9.80;7.27;;;9.90;99.90;;;;;;5128106;27;20445;-71
2024/02/10 01:39:24;;;;;;;13.40;8.13;;;9.90;99.90;;;;;;5129542;27;20497;-71
2024/02/10 01:41:52;;;;;;;15.90;8.20;;;9.90;99.90;;;;;;5113584;28;20482;-72
2024/02/10 01:44:18;;;;;;;12.23;7.47;;;9.90;99.90;;;;;;5109293;28;20465;-69
2024/02/10 01:46:44;;;;;;;13.67;9.10;;;9.90;99.90;;;;;;5113839;28;20641;-69
2024/02/10 01:49:11;;;;;;;15.83;8.07;;;9.80;99.90;;;;;;5118412;27;20402;-70
2024/02/10 01:51:36;;;;;;;12.63;8.20;;;9.80;99.90;;;;;;5119622;28;20468;-69
2024/02/10 01:54:03;;;;;;;12.07;7.37;;;9.80;99.90;;;;;;5119933;28;20422;-71
2024/02/10 01:56:29;;;;;;;14.77;7.33;;;9.80;99.90;;;;;;5120892;28;20216;-72
2024/02/10 01:58:56;;;;;;;11.40;7.67;;;9.80;99.90;;;;;;5123805;28;20523;-70
2024/02/10 02:01:23;;;;;;;19.20;10.30;;;9.80;99.90;;;;;;5125898;28;20424;-71
2024/02/10 02:03:49;;;;;;;16.40;8.77;;;9.80;99.90;;;;;;5125030;28;20764;-71
2024/02/10 02:06:18;;;;;;;23.43;11.40;;;9.80;99.90;;;;;;5127034;28;20473;-70
2024/02/10 02:08:47;;;;;;;14.10;8.20;;;9.80;99.90;;;;;;5128188;28;20268;-70
2024/02/10 02:11:14;;;;;;;15.77;8.53;;;9.80;99.90;;;;;;5125414;28;20513;-70
2024/02/10 02:13:41;;;;;;;11.20;7.83;;;9.80;99.90;;;;;;5127002;28;20408;-69
2024/02/10 02:16:06;;;;;;;9.90;6.10;;;9.80;99.90;;;;;;5129404;28;20445;-70
2024/02/10 02:18:32;;;;;;;15.97;7.73;;;9.70;99.90;;;;;;5124681;28;20494;-69
2024/02/10 02:20:58;;;;;;;12.90;8.03;;;9.80;99.90;;;;;;5115304;28;20184;-69
2024/02/10 02:23:24;;;;;;;12.53;7.20;;;9.70;99.90;;;;;;5123666;28;20287;-68
2024/02/10 02:25:50;;;;;;;9.80;7.40;;;9.70;99.90;;;;;;5124533;28;20457;-69
2024/02/10 02:28:21;;;;;;;11.20;6.97;;;9.70;99.90;;;;;;5124476;28;20199;-71
2024/02/10 02:30:47;;;;;;;13.90;8.10;;;9.70;99.90;;;;;;5123896;28;20470;-71
2024/02/10 02:33:13;;;;;;;14.93;7.67;;;9.70;99.90;;;;;;5125457;27;20492;-68
2024/02/10 02:35:46;;;;;;;9.80;7.07;;;9.70;99.90;;;;;;5121802;28;20208;-69
2024/02/10 02:38:13;;;;;;;11.37;6.57;;;9.60;99.90;;;;;;5121100;28;20203;-69
2024/02/10 02:40:42;;;;;;;11.40;7.50;;;9.80;99.90;;;;;;5123311;28;20419;-71
2024/02/10 02:43:12;;;;;;;10.00;7.13;;;9.60;99.90;;;;;;5139401;27;20527;-69
2024/02/10 02:45:39;;;;;;;10.13;6.43;;;9.60;99.90;;;;;;5123279;27;20434;-69
2024/02/10 02:48:07;;;;;;;11.97;5.90;;;9.50;99.90;;;;;;5144327;27;20408;-70
2024/02/10 02:50:34;;;;;;;10.40;6.50;;;;;;;;;;5105325;28;20420;-70
2024/02/10 02:53:03;;;;;;;12.33;6.03;;;;;;;;;;5100276;28;20479;-72
2024/02/10 02:55:29;;;;;;;8.57;6.20;;;9.30;99.90;;;;;;5102166;28;20441;-71
2024/02/10 02:57:58;;;;;;;9.00;6.10;;;9.30;99.90;;;;;;5100472;28;20422;-67
2024/02/10 03:00:23;;;;;;;8.63;5.40;;;9.30;99.90;;;;;;5100969;28;20425;-70
2024/02/10 03:02:51;;;;;;;7.30;4.80;;;9.20;99.90;;;;;;5104781;28;20486;-68
2024/02/10 03:05:17;;;;;;;10.97;7.03;;;9.10;99.90;;;;;;5104240;28;20193;-68
2024/02/10 03:07:45;;;;;;;8.60;5.20;;;9.10;99.90;;;;;;5099328;28;20434;-69
2024/02/10 03:10:15;;;;;;;8.10;5.60;;;9.10;99.90;;;;;;5100609;28;20476;-69
2024/02/10 03:12:41;;;;;;;8.47;6.33;;;9.00;99.90;;;;;;5098253;28;20435;-69
2024/02/10 03:15:10;;;;;;;8.27;5.53;;;9.00;99.90;;;;;;5098718;28;20426;-72
2024/02/10 03:17:36;;;;;;;9.83;5.87;;;9.10;99.90;;;;;;5098556;28;20434;-70
2024/02/10 03:20:02;;;;;;;8.70;5.20;;;9.00;99.90;;;;;;5100110;28;20426;-70
2024/02/10 03:22:28;;;;;;;8.03;5.70;;;9.00;99.90;;;;;;5099371;28;20430;-69
2024/02/10 03:24:54;;;;;;;9.60;6.20;;;9.00;99.90;;;;;;5098932;28;20414;-70
2024/02/10 03:27:20;;;;;;;7.57;5.90;;;8.90;99.90;;;;;;5108295;27;20444;-70
2024/02/10 03:29:49;;;;;;;10.07;6.13;;;8.90;99.90;;;;;;5132329;27;20599;-68
2024/02/10 03:32:15;;;;;;;8.50;5.50;;;8.90;99.90;;;;;;5131979;27;20510;-69
2024/02/10 03:34:41;;;;;;;11.87;6.10;;;8.80;99.90;;;;;;5142771;27;20859;-69
2024/02/10 03:37:07;;;;;;;9.67;6.03;;;8.80;99.90;;;;;;5141486;27;20428;-67
2024/02/10 03:39:33;;;;;;;11.30;6.43;;;8.80;99.90;;;;;;5141864;27;20419;-71
2024/02/10 03:41:59;;;;;;;8.47;5.37;;;8.80;99.90;;;;;;5122389;27;20547;-69
2024/02/10 03:44:24;;;;;;;8.20;5.27;;;8.80;99.90;;;;;;5141111;27;20531;-68
2024/02/10 03:46:54;;;;;;;8.20;6.37;;;8.70;99.90;;;;;;5141382;27;20199;-70
2024/02/10 03:49:20;;;;;;;7.03;6.17;;;8.70;99.90;;;;;;5123211;27;20214;-68
2024/02/10 03:51:46;;;;;;;8.13;5.37;;;8.70;99.90;;;;;;5145103;27;20413;-67
2024/02/10 03:54:12;;;;;;;7.93;5.47;;;8.70;99.90;;;;;;5139053;27;20183;-68
2024/02/10 03:56:42;;;;;;;9.77;5.37;;;8.70;99.90;;;;;;5137416;27;20294;-67
2024/02/10 03:59:08;;;;;;;7.37;5.50;;;8.70;99.90;;;;;;5139712;27;20414;-69
2024/02/10 04:01:34;;;;;;;11.80;7.03;;;8.70;99.90;;;;;;5128436;27;20438;-69
2024/02/10 04:04:02;;;;;;;7.67;6.60;;;8.70;99.90;;;;;;5131939;27;20637;-69
2024/02/10 04:06:28;;;;;;;10.23;6.33;;;8.70;99.90;;;;;;5140357;27;20448;-68
2024/02/10 04:08:54;;;;;;;8.73;5.80;;;8.60;99.90;;;;;;5140481;27;20409;-69
2024/02/10 04:11:20;;;;;;;11.80;5.90;;;8.60;99.90;;;;;;5139716;27;20190;-68
2024/02/10 04:13:46;;;;;;;6.43;5.43;;;8.60;99.90;;;;;;5140357;27;20568;-68
2024/02/10 04:16:12;;;;;;;6.60;5.07;;;8.50;99.90;;;;;;5141004;27;20500;-71
2024/02/10 04:18:39;;;;;;;8.60;5.90;;;8.50;99.90;;;;;;5139655;27;20191;-69
2024/02/10 04:21:06;;;;;;;7.90;5.93;;;8.50;99.90;;;;;;5140943;27;20428;-68
2024/02/10 04:23:33;;;;;;;9.47;6.03;;;8.50;99.90;;;;;;5139717;27;20811;-68
2024/02/10 04:26:01;;;;;;;8.60;5.50;;;8.50;99.90;;;;;;5139366;27;20452;-68
2024/02/10 04:28:27;;;;;;;9.77;5.50;;;8.50;99.90;;;;;;5139692;27;20469;-70
2024/02/10 04:30:52;;;;;;;8.90;5.20;;;8.50;99.90;;;;;;5139683;27;20401;-69
2024/02/10 04:33:21;;;;;;;7.60;4.87;;;8.50;99.90;;;;;;5120226;27;20206;-67
2024/02/10 04:35:48;;;;;;;7.70;6.00;;;8.50;99.90;;;;;;5139033;27;20218;-68
2024/02/10 04:38:14;;;;;;;8.67;5.57;;;8.40;99.90;;;;;;5139565;27;20480;-68
2024/02/10 04:40:40;;;;;;;8.80;5.20;;;8.40;99.90;;;;;;5138439;27;20450;-67
2024/02/10 04:43:06;;;;;;;7.03;5.67;;;8.30;99.90;;;;;;5138834;27;20218;-69
2024/02/10 04:45:33;;;;;;;9.20;5.13;;;8.30;99.90;;;;;;5139134;27;20439;-68
2024/02/10 04:48:04;;;;;;;8.80;6.00;;;8.30;99.90;;;;;;5138646;27;20413;-67
2024/02/10 04:50:30;;;;;;;7.80;6.17;;;8.30;99.90;;;;;;5138256;27;20435;-68
2024/02/10 04:52:57;;;;;;;7.70;5.40;;;8.30;99.90;;;;;;5140018;27;20859;-70
2024/02/10 04:55:23;;;;;;;8.67;5.30;;;8.30;99.90;;;;;;5139605;27;20425;-68
2024/02/10 04:57:50;;;;;;;11.17;6.47;;;8.30;99.90;;;;;;5138784;27;20420;-69
2024/02/10 05:00:17;;;;;;;8.80;6.27;;;8.30;99.90;;;;;;5139965;27;20404;-68
2024/02/10 05:02:47;;;;;;;6.83;5.60;;;8.30;99.90;;;;;;5139451;27;20556;-69
2024/02/10 05:05:14;;;;;;;6.17;4.97;;;8.30;99.90;;;;;;5142920;27;20420;-69
2024/02/10 05:07:48;;;;;;;8.50;5.47;;;8.20;99.90;;;;;;5140212;27;20436;-70
2024/02/10 05:10:15;;;;;;;7.63;5.37;;;8.20;99.90;;;;;;5142108;27;20409;-68
2024/02/10 05:12:46;;;;;;;8.03;4.97;;;8.20;99.90;;;;;;5139001;27;20408;-70
2024/02/10 05:15:14;;;;;;;7.90;5.43;;;8.20;99.90;;;;;;5139206;27;20416;-69
2024/02/10 05:17:41;;;;;;;6.27;5.23;;;8.10;99.90;;;;;;5138593;27;20434;-68
2024/02/10 05:20:18;;;;;;;8.40;5.50;;;8.10;99.90;;;;;;5140899;27;20698;-69
2024/02/10 05:22:46;;;;;;;10.77;6.53;;;8.10;99.90;;;;;;5136230;27;20494;-68
2024/02/10 05:25:12;;;;;;;9.23;6.00;;;8.10;99.90;;;;;;5138934;27;20405;-69
2024/02/10 05:27:39;;;;;;;9.20;6.27;;;8.10;99.90;;;;;;5138829;27;20428;-68
2024/02/10 05:30:05;;;;;;;9.33;6.00;;;8.10;99.90;;;;;;5139649;27;20461;-68
2024/02/10 05:32:31;;;;;;;7.73;5.80;;;8.10;99.90;;;;;;5104482;27;20699;-70
2024/02/10 05:34:56;;;;;;;9.70;6.70;;;8.20;99.90;;;;;;5139524;27;20436;-69
2024/02/10 05:37:22;;;;;;;12.40;7.10;;;8.20;99.90;;;;;;5139112;27;20203;-68
2024/02/10 05:39:47;;;;;;;12.00;7.70;;;8.20;99.90;;;;;;5138630;27;20218;-69
2024/02/10 05:42:13;;;;;;;10.13;7.13;;;8.20;99.90;;;;;;5139104;27;20621;-70
2024/02/10 05:44:40;;;;;;;10.23;6.77;;;8.20;99.90;;;;;;5138734;27;20263;-68
2024/02/10 05:47:06;;;;;;;11.93;6.90;;;8.20;99.90;;;;;;5139039;27;20238;-69
2024/02/10 05:49:34;;;;;;;9.33;6.43;;;8.20;99.90;;;;;;5141348;27;21350;-69
2024/02/10 05:52:00;;;;;;;12.07;7.40;;;8.30;99.90;;;;;;5137842;27;20413;-68
2024/02/10 05:54:29;;;;;;;9.97;6.70;;;8.30;99.90;;;;;;5139251;27;20512;-68
2024/02/10 05:56:54;;;;;;;10.83;7.17;;;8.30;99.90;;;;;;5142423;28;20331;-67
2024/02/10 05:59:20;;;;;;;9.80;6.60;;;8.20;99.90;;;;;;5143953;28;20495;-68
2024/02/10 06:01:47;;;;;;;10.03;6.97;;;8.20;99.90;;;;;;5140495;28;20186;-68
2024/02/10 06:04:13;;;;;;;9.63;6.77;;;8.20;99.90;;;;;;5138767;28;20243;-69
2024/02/10 06:06:42;;;;;;;9.27;6.10;;;8.20;99.90;;;;;;5139234;28;20425;-69
2024/02/10 06:09:08;;;;;;;9.23;6.20;;;8.10;99.90;;;;;;5139338;28;20417;-68
2024/02/10 06:11:33;;;;;;;8.77;7.33;;;8.10;99.90;;;;;;5119427;28;20425;-68
2024/02/10 06:13:59;;;;;;;11.33;7.60;;;8.10;99.90;;;;;;5139809;28;20194;-68
2024/02/10 06:16:26;;;;;;;11.23;7.80;;;8.10;99.90;;;;;;5138783;28;20207;-68
2024/02/10 06:18:52;;;;;;;9.80;7.47;;;8.20;99.90;;;;;;5138511;28;20417;-69
2024/02/10 06:21:17;;;;;;;10.60;7.27;;;8.10;99.90;;;;;;5138462;28;20504;-68
2024/02/10 06:23:43;;;;;;;14.83;8.50;;;8.10;99.90;;;;;;5137797;28;20471;-67
2024/02/10 06:26:10;;;;;;;10.20;7.33;;;8.10;99.90;;;;;;5137581;28;20191;-68
2024/02/10 06:28:37;;;;;;;10.73;7.50;;;8.10;99.90;;;;;;5119191;28;20588;-68
2024/02/10 06:31:03;;;;;;;10.60;7.90;;;8.10;99.90;;;;;;5143879;28;20417;-69
2024/02/10 06:33:29;;;;;;;13.33;8.43;;;8.10;99.90;;;;;;5143360;28;20815;-67
2024/02/10 06:35:58;;;;;;;11.87;7.90;;;8.20;99.90;;;;;;5120805;28;20523;-68
2024/02/10 06:38:32;;;;;;;13.17;8.47;;;8.10;99.90;;;;;;5137386;28;20450;-68
2024/02/10 06:41:01;;;;;;;12.40;7.97;;;8.10;99.90;;;;;;5137219;28;20412;-68
2024/02/10 06:43:27;;;;;;;11.67;8.70;;;8.10;99.90;;;;;;5137384;28;20460;-68
2024/02/10 06:45:53;;;;;;;12.27;8.57;;;8.10;99.90;;;;;;5137463;28;20440;-68
2024/02/10 06:48:19;;;;;;;9.67;7.43;;;8.10;99.90;;;;;;5136837;28;20197;-68
2024/02/10 06:50:45;;;;;;;13.23;7.53;;;8.10;99.90;;;;;;5137557;28;20302;-69
2024/02/10 06:53:10;;;;;;;11.70;8.60;;;8.00;99.90;;;;;;5137113;28;20404;-69
2024/02/10 06:55:36;;;;;;;11.17;7.70;;;8.00;99.90;;;;;;5137635;28;20493;-68
2024/02/10 06:58:02;;;;;;;14.43;9.97;;;8.00;99.90;;;;;;5137205;28;20223;-70
2024/02/10 07:00:38;;;;;;;11.70;8.33;;;8.00;99.90;;;;;;5118649;28;20175;-67
2024/02/10 07:03:04;;;;;;;14.63;10.27;;;8.10;99.90;;;;;;5121051;27;20214;-68
2024/02/10 07:05:30;;;;;;;13.50;9.33;;;8.10;99.90;;;;;;5144268;27;20470;-68
2024/02/10 07:07:55;;;;;;;13.90;8.90;;;8.20;99.90;;;;;;5141349;27;20412;-69
2024/02/10 07:10:23;;;;;;;14.03;9.30;;;8.20;99.90;;;;;;5143401;27;20562;-69
2024/02/10 07:12:52;;;;;;;13.10;8.63;;;8.20;99.90;;;;;;5141531;27;20258;-70
2024/02/10 07:15:23;;;;;;;13.43;9.07;;;8.20;99.90;;;;;;5141415;27;20511;-68
2024/02/10 07:17:50;;;;;;;16.40;9.07;;;8.30;99.90;;;;;;5141473;27;20424;-69
2024/02/10 07:20:20;;;;;;;14.70;8.97;;;8.30;99.90;;;;;;5141294;27;20428;-69
2024/02/10 07:22:58;;;;;;;10.67;8.00;;;8.30;99.90;;;;;;5142270;27;20515;-69
2024/02/10 07:25:31;;;;;;;11.57;7.87;;;8.30;99.90;;;;;;5141340;27;20884;-68
2024/02/10 07:28:04;;;;;;;13.03;8.70;;;8.30;99.90;;;;;;5122710;27;20431;-68
2024/02/10 07:30:34;;;;;;;10.43;7.70;;;8.20;99.90;;;;;;5106220;27;20462;-73
2024/02/10 07:33:08;;;;;;;14.10;9.10;;;8.20;99.90;;;;;;5125981;27;20658;-70
2024/02/10 07:35:37;;;;;;;12.83;9.07;;;8.20;99.90;;;;;;5126497;27;20894;-69
2024/02/10 07:38:04;;;;;;;10.10;8.17;;;8.30;99.90;;;;;;5130561;27;20420;-69
2024/02/10 07:40:30;;;;;;;12.03;7.83;;;8.30;99.90;;;;;;5149880;27;20468;-69
2024/02/10 07:42:56;;;;;;;11.57;8.77;;;8.30;99.90;;;;;;5148534;27;20464;-70
2024/02/10 07:45:24;;;;;;;13.30;8.40;;;8.40;99.90;;;;;;5149167;27;20409;-71
2024/02/10 07:47:50;;;;;;;11.20;7.57;;;8.40;99.90;;;;;;5149370;27;20191;-69
2024/02/10 07:50:16;;;;;;;11.43;8.00;;;8.40;99.90;;;;;;5147793;27;20943;-68
2024/02/10 07:52:45;;;;;;;11.20;8.03;;;8.40;99.90;;;;;;5127071;27;20216;-69
2024/02/10 07:55:12;;;;;;;12.40;8.50;;;8.50;99.90;;;;;;5123346;27;20191;-69
2024/02/10 07:57:39;;;;;;;12.97;8.23;;;8.40;99.90;;;;;;5141281;27;20911;-71
2024/02/10 08:00:06;;;;;;;9.53;7.93;;;8.40;99.90;;;;;;5141332;27;20744;-71
2024/02/10 08:02:32;;;;;;;9.33;7.77;;;8.50;99.90;;;;;;5139889;27;20421;-69
2024/02/10 08:04:59;;;;;;;10.13;7.77;;;8.50;99.90;;;;;;5142236;27;20947;-69
2024/02/10 08:07:29;;;;;;;13.80;8.03;;;8.50;99.90;;;;;;5142130;27;20206;-69
2024/02/10 08:09:55;;;;;;;9.97;7.70;;;8.50;99.90;;;;;;5142488;27;20419;-69
2024/02/10 08:12:23;;;;;;;9.33;7.50;;;8.50;99.90;;;;;;5142826;27;20471;-70
2024/02/10 08:14:50;;;;;;;11.27;7.67;;;8.50;99.90;;;;;;5122503;27;20424;-69
2024/02/10 08:17:30;;;;;;;9.90;7.30;;;8.60;99.90;;;;;;5124048;27;20428;-69
2024/02/10 08:19:56;;;;;;;9.87;7.53;;;8.60;99.90;;;;;;5143429;27;20416;-70
2024/02/10 08:22:26;;;;;;;9.80;6.93;;;8.60;99.90;;;;;;5145728;27;20400;-70
2024/02/10 08:24:55;;;;;;;8.80;6.70;;;8.70;99.90;;;;;;5147650;27;20401;-70
2024/02/10 08:27:28;;;;;;;10.20;6.50;;;8.70;99.90;;;;;;5148498;27;20448;-69
2024/02/10 08:29:54;;;;;;;8.63;6.13;;;8.80;99.90;;;;;;5149262;27;20409;-70
2024/02/10 08:32:21;;;;;;;9.33;7.60;;;8.80;99.90;;;;;;5149709;27;20425;-72
2024/02/10 08:34:46;;;;;;;9.10;5.90;;;8.90;99.90;;;;;;5148492;27;20424;-70
2024/02/10 08:37:13;;;;;;;7.73;5.80;;;9.00;99.90;;;;;;5148607;27;20528;-73
2024/02/10 08:39:46;;;;;;;7.13;5.60;;;9.00;99.90;;;;;;5148954;27;20191;-72
2024/02/10 08:42:12;;;;;;;9.80;6.33;;;9.10;99.90;;;;;;5149655;27;20452;-70
2024/02/10 08:44:38;;;;;;;10.20;5.90;;;9.20;99.90;;;;;;5145925;27;20544;-69
2024/02/10 08:47:06;;;;;;;5.80;5.30;;;9.30;99.90;;;;;;5141766;27;20428;-71
2024/02/10 08:49:34;;;;;;;7.90;5.87;;;9.40;99.90;;;;;;5143011;27;20424;-69
2024/02/10 08:52:19;;;;;;;6.97;5.40;;;9.50;99.90;;;;;;5143297;27;20549;-70
2024/02/10 08:54:46;;;;;;;6.93;6.10;;;9.60;99.90;;;;;;5146254;27;20432;-70
2024/02/10 08:57:15;;;;;;;7.20;6.20;;;9.70;99.90;;;;;;5126608;27;20527;-70
2024/02/10 08:59:43;;;;;;;8.03;6.20;;;9.80;99.90;;;;;;5141962;27;20500;-70
2024/02/10 09:02:09;;;;;;;9.67;5.87;;;9.90;99.90;;;;;;5142485;27;20421;-71
2024/02/10 09:04:38;;;;;;;5.83;5.20;;;10.00;99.90;;;;;;5142655;27;20472;-71
2024/02/10 09:07:06;;;;;;;5.73;5.07;;;10.10;99.90;;;;;;5142478;27;20519;-70
2024/02/10 09:09:36;;;;;;;6.40;5.40;;;10.20;99.90;;;;;;5142282;27;20405;-71
2024/02/10 09:12:02;;;;;;;6.67;5.50;;;10.30;99.90;;;;;;5141288;27;20444;-71
2024/02/10 09:14:28;;;;;;;6.83;4.90;;;10.40;99.90;;;;;;5141303;27;20695;-70
2024/02/10 09:16:53;;;;;;;5.80;5.20;;;10.50;99.90;;;;;;5123565;27;20451;-70
2024/02/10 09:19:19;;;;;;;6.13;5.53;;;10.60;99.90;;;;;;5140758;27;20420;-71
2024/02/10 09:21:54;;;;;;;5.27;4.40;;;10.60;99.90;;;;;;5140893;27;20164;-71
2024/02/10 09:24:24;;;;;;;5.27;4.47;;;10.60;99.90;;;;;;5140093;27;20460;-71
2024/02/10 09:26:49;;;;;;;5.70;4.70;;;10.70;99.90;;;;;;5141575;27;20456;-71
2024/02/10 09:29:15;;;;;;;5.30;4.80;;;10.90;99.90;;;;;;5141958;27;20401;-69
2024/02/10 09:31:45;;;;;;;3.97;3.57;;;10.90;99.90;;;;;;5123251;27;20179;-72
2024/02/10 09:34:12;;;;;;;4.87;4.17;;;10.90;99.90;;;;;;5142485;27;20192;-71
2024/02/10 09:36:43;;;;;;;4.50;4.10;;;11.00;99.90;;;;;;5142106;27;20520;-71
2024/02/10 09:39:09;;;;;;;5.17;4.10;;;11.10;99.90;;;;;;5141931;27;20531;-71
2024/02/10 09:41:35;;;;;;;4.97;4.57;;;11.10;99.90;;;;;;5142571;27;20452;-72
2024/02/10 09:44:03;;;;;;;5.90;4.90;;;11.20;99.90;;;;;;5142751;27;20961;-73
2024/02/10 09:46:35;;;;;;;4.30;3.90;;;11.20;99.90;;;;;;5135659;27;20460;-70
2024/02/10 09:49:06;;;;;;;5.50;4.83;;;11.30;99.90;;;;;;5125682;28;20415;-72
2024/02/10 09:51:42;;;;;;;6.53;4.47;;;11.40;99.90;;;;;;5124592;27;20415;-73
2024/02/10 09:54:13;;;;;;;4.60;4.20;;;11.40;99.90;;;;;;5142830;27;20425;-72
2024/02/10 09:56:39;;;;;;;5.27;4.63;;;11.40;99.90;;;;;;5142270;27;20515;-70
2024/02/10 09:59:22;;;;;;;5.13;3.83;;;11.60;99.90;;;;;;5143234;28;20461;-71
2024/02/10 10:01:49;;;;;;;5.93;4.40;;;11.60;99.90;;;;;;5142435;28;20578;-71
2024/02/10 10:04:16;;;;;;;5.13;3.93;;;11.70;99.90;;;;;;5141415;28;20474;-71
2024/02/10 10:06:44;;;;;;;6.90;4.33;;;11.80;99.90;;;;;;5140055;28;20445;-69
2024/02/10 10:09:12;;;;;;;4.23;3.83;;;11.90;99.90;;;;;;5140900;28;20427;-71
2024/02/10 10:11:43;;;;;;;3.87;3.57;;;12.00;99.90;;;;;;5124429;28;20421;-72
2024/02/10 10:14:10;;;;;;;4.13;3.73;;;12.10;99.90;;;;;;5123228;28;20437;-73
2024/02/10 10:16:36;;;;;;;5.77;4.33;;;12.20;99.90;;;;;;5141091;28;20460;-71
2024/02/10 10:19:02;;;;;;;5.27;3.87;;;12.30;99.90;;;;;;5123282;28;20423;-72
2024/02/10 10:21:30;;;;;;;4.03;3.50;;;12.40;99.90;;;;;;5142503;28;20635;-72
2024/02/10 10:23:56;;;;;;;4.37;3.40;;;12.50;99.90;;;;;;5140224;28;20910;-71
2024/02/10 10:26:23;;;;;;;4.57;4.17;;;12.60;99.90;;;;;;5123974;28;20453;-72
2024/02/10 10:28:49;;;;;;;3.47;3.17;;;12.70;99.90;;;;;;5141708;28;20429;-69
2024/02/10 10:31:17;;;;;;;4.77;3.10;;;12.80;99.90;;;;;;5141496;28;20426;-70
2024/02/10 10:33:46;;;;;;;4.53;3.40;;;12.80;99.90;;;;;;5141055;28;20454;-71
2024/02/10 10:36:14;;;;;;;3.70;3.40;;;12.90;99.90;;;;;;5142825;27;20432;-73
2024/02/10 10:38:42;;;;;;;3.70;3.40;;;13.00;99.90;;;;;;5147259;27;20476;-72
2024/02/10 10:41:09;;;;;;;3.93;3.30;;;13.00;99.90;;;;;;5146801;27;20439;-73
2024/02/10 10:43:37;;;;;;;4.63;2.93;;;13.10;99.90;;;;;;5146827;27;20445;-74
2024/02/10 10:46:03;;;;;;;3.07;2.77;;;13.10;99.90;;;;;;5135983;27;20531;-70
2024/02/10 10:48:29;;;;;;;3.77;2.93;;;13.20;99.90;;;;;;5143808;27;20666;-72
2024/02/10 10:50:58;;;;;;;3.73;3.40;;;13.20;99.90;;;;;;5146592;27;20426;-69
2024/02/10 10:53:27;;;;;;;5.47;3.80;;;13.30;99.90;;;;;;5156244;27;20279;-72
2024/02/10 10:56:03;;;;;;;3.70;3.13;;;13.30;99.90;;;;;;5116532;27;20499;-71
2024/02/10 10:58:38;;;;;;;3.20;2.73;;;13.30;99.90;;;;;;5128419;28;20421;-71
2024/02/10 11:01:05;;;;;;;3.93;3.50;;;13.40;99.90;;;;;;5142947;27;20412;-73
2024/02/10 11:03:32;;;;;;;3.77;3.43;;;13.40;99.90;;;;;;5141865;27;20465;-74
2024/02/10 11:05:57;;;;;;;4.10;3.10;;;13.50;99.90;;;;;;5132223;27;20433;-74
2024/02/10 11:08:27;;;;;;;3.27;2.97;;;13.50;99.90;;;;;;5103545;27;20446;-71
2024/02/10 11:11:00;;;;;;;3.07;2.77;;;13.50;99.90;;;;;;5138877;27;20195;-73
2024/02/10 11:13:28;;;;;;;3.50;3.10;;;13.50;99.90;;;;;;5117710;27;20486;-74
2024/02/10 11:16:12;;;;;;;3.50;3.00;;;13.50;99.90;;;;;;5148983;27;20432;-73
2024/02/10 11:18:45;;;;;;;3.30;2.60;;;13.60;99.90;;;;;;5136913;27;20437;-73
2024/02/10 11:21:28;;;;;;;2.87;2.50;;;13.60;99.90;;;;;;5146111;27;20455;-73
2024/02/10 11:24:00;;;;;;;3.40;2.60;;;13.60;99.90;;;;;;5138289;27;20946;-69
2024/02/10 11:26:27;;;;;;;2.60;2.20;;;13.60;99.90;;;;;;5150518;27;20451;-72
2024/02/10 11:29:03;;;;;;;3.87;2.53;;;13.60;99.90;;;;;;5134143;27;20446;-74
2024/02/10 11:31:28;;;;;;;3.00;2.70;;;13.60;99.90;;;;;;5162274;27;20488;-73
2024/02/10 11:34:05;;;;;;;3.17;2.53;;;13.70;99.90;;;;;;5114886;27;20505;-73
2024/02/10 11:36:32;;;;;;;2.67;2.07;;;13.80;99.90;;;;;;5139063;27;20208;-71
2024/02/10 11:38:58;;;;;;;2.40;2.07;;;13.90;99.90;;;;;;5141224;27;20414;-73
2024/02/10 11:41:24;;;;;;;3.00;2.63;;;14.10;99.90;;;;;;5166320;27;20396;-74
2024/02/10 11:43:50;;;;;;;2.63;2.30;;;14.10;99.90;;;;;;5131696;27;20209;-74
2024/02/10 11:46:16;;;;;;;3.63;2.90;;;14.30;99.90;;;;;;5149406;27;20199;-73
2024/02/10 11:48:41;;;;;;;3.40;2.20;;;14.40;99.90;;;;;;5142489;27;20425;-72
2024/02/10 11:51:07;;;;;;;3.80;2.03;;;14.40;99.90;;;;;;5146900;27;20202;-74
2024/02/10 11:53:34;;;;;;;5.70;3.23;;;14.40;99.90;;;;;;5145741;27;20195;-74
2024/02/10 11:56:05;;;;;;;3.70;2.23;;;14.50;99.90;;;;;;5140687;27;20208;-72
2024/02/10 11:58:31;;;;;;;2.70;2.17;;;14.50;99.90;;;;;;5112282;27;20654;-72
2024/02/10 12:00:56;;;;;;;5.43;3.53;;;14.50;99.90;;;;;;5131839;27;20412;-74
2024/02/10 12:03:24;;;;;;;7.00;4.60;;;14.50;99.90;;;;;;5124223;28;20274;-73
2024/02/10 12:05:49;;;;;;;8.17;5.47;;;14.50;99.90;;;;;;5146051;27;20199;-73
2024/02/10 12:08:15;;;;;;;2.67;2.40;;;14.40;99.90;;;;;;5128458;27;20897;-72
2024/02/10 12:10:42;;;;;;;3.40;1.90;;;14.40;99.90;;;;;;5141508;27;20201;-73
2024/02/10 12:13:11;;;;;;;2.20;1.77;;;14.40;99.90;;;;;;5149020;27;20227;-74
2024/02/10 12:15:40;;;;;;;2.60;1.80;;;14.50;99.90;;;;;;5147925;27;20685;-74
2024/02/10 12:18:10;;;;;;;2.53;2.03;;;14.50;99.90;;;;;;5134065;27;20436;-73
2024/02/10 12:20:37;;;;;;;3.07;2.60;;;14.40;99.90;;;;;;5137234;27;20426;-73
2024/02/10 12:23:03;;;;;;;2.30;1.80;;;14.40;99.90;;;;;;5152438;27;20500;-73
2024/02/10 12:25:29;;;;;;;2.93;2.13;;;14.30;99.90;;;;;;5156929;27;20432;-72
2024/02/10 12:27:56;;;;;;;3.57;1.87;;;14.30;99.90;;;;;;5137456;27;20604;-73
2024/02/10 12:30:22;;;;;;;2.30;1.97;;;14.20;99.90;;;;;;5145691;27;20224;-75
2024/02/10 12:32:51;;;;;;;3.70;2.43;;;14.10;99.90;;;;;;5142880;27;20405;-75
2024/02/10 12:35:17;;;;;;;3.07;2.03;;;14.00;99.90;;;;;;5150346;27;20217;-72
2024/02/10 12:37:47;;;;;;;2.30;1.93;;;14.00;99.90;;;;;;5144732;27;20461;-74
2024/02/10 12:40:18;;;;;;;2.63;1.70;;;14.00;99.90;;;;;;5130912;27;20417;-74
2024/02/10 12:42:44;;;;;;;2.80;1.80;;;14.00;99.90;;;;;;5145610;27;20452;-74
2024/02/10 12:45:10;;;;;;;2.30;1.63;;;14.00;99.90;;;;;;5156922;27;20421;-74
2024/02/10 12:47:37;;;;;;;3.60;1.90;;;14.00;99.90;;;;;;5134710;27;20190;-74
2024/02/10 12:50:09;;;;;;;3.10;1.70;;;14.00;99.90;;;;;;5146152;27;20765;-74